Terminal Aerodrome Forecast
Issued by NWS

Home | Current Version | Previous Version | Text Only | Print | Product List | Glossary On
Versions: 1 2 3 4 5 6 7 8 9 10 11 12 13 14 15 16 17 18 19 20 21 22 23
000
FTUS43 KGRB 300500
TAFCWA
TAF
KCWA 300538Z 3006/3106 VRB03KT 6SM HZ VCTS SCT003CB BKN060 OVC120
      TEMPO 3006/3010 2SM SHRA BR BKN004 OVC040
     FM301000 30003KT 3SM -SHRA BR OVC006
     FM301400 29006KT 5SM -SHRA BR OVC008
     FM301800 32008KT 5SM HZ BKN012 BKN035
     FM310000 04003KT P6SM SCT015 SCT040
      AMD LTD TO CLD VIS AND WIND TIL 301200=

USA.gov is the U.S. government's official web portal to all federal, state and local government web resources and services.